createdAt,value
2023-04-12T00:00:34.420Z,15.27
2023-04-12T00:03:08.130Z,14.13
2023-04-12T00:05:38.712Z,12.80
2023-04-12T00:08:10.918Z,14.63
2023-04-12T00:10:39.856Z,14.07
2023-04-12T00:13:08.412Z,17.35
2023-04-12T00:15:37.107Z,14.70
2023-04-12T00:18:05.775Z,13.50
2023-04-12T00:20:34.344Z,15.10
2023-04-12T00:23:04.183Z,15.05
2023-04-12T00:25:33.394Z,16.10
2023-04-12T00:28:02.153Z,17.08
2023-04-12T00:30:30.646Z,11.30
2023-04-12T00:32:59.817Z,14.68
2023-04-12T00:35:28.434Z,15.20
2023-04-12T00:37:56.764Z,12.13
2023-04-12T00:40:26.963Z,13.82
2023-04-12T00:42:55.394Z,12.20
2023-04-12T00:45:23.780Z,11.15
2023-04-12T00:47:53.116Z,9.80
2023-04-12T00:50:23.394Z,12.88
2023-04-12T00:52:55.645Z,8.20
2023-04-12T00:55:24.521Z,6.78
2023-04-12T00:57:55.730Z,6.97
2023-04-12T01:00:24.035Z,9.35
2023-04-12T01:02:53.250Z,6.97
2023-04-12T01:05:24.503Z,5.38
2023-04-12T01:08:07.252Z,7.07
2023-04-12T01:10:46.421Z,6.07
2023-04-12T01:13:30.180Z,4.63
2023-04-12T01:16:09.614Z,5.13
2023-04-12T01:18:43.033Z,5.32
2023-04-12T01:21:17.495Z,4.18
2023-04-12T01:24:00.103Z,4.97
2023-04-12T01:26:38.005Z,4.10
2023-04-12T01:29:12.083Z,5.22
2023-04-12T01:31:42.920Z,3.92
2023-04-12T01:34:14.798Z,5.82
2023-04-12T01:36:46.815Z,5.68
2023-04-12T01:39:15.695Z,5.53
2023-04-12T01:41:45.778Z,5.53
2023-04-12T01:44:17.134Z,4.97
2023-04-12T01:46:46.996Z,6.05
2023-04-12T01:49:16.653Z,6.05
2023-04-12T01:51:53.563Z,5.88
2023-04-12T01:54:25.893Z,5.57
2023-04-12T01:59:33.519Z,4.75
2023-04-12T02:02:03.651Z,4.68
2023-04-12T02:04:35.977Z,4.40
2023-04-12T02:07:05.197Z,4.95
2023-04-12T02:09:38.416Z,7.57
2023-04-12T02:12:07.799Z,6.20
2023-04-12T02:14:39.082Z,4.53
2023-04-12T02:17:08.853Z,7.03
2023-04-12T02:19:38.840Z,4.95
2023-04-12T02:22:08.494Z,6.05
2023-04-12T02:24:37.106Z,4.78
2023-04-12T02:27:06.189Z,4.70
2023-04-12T02:29:36.139Z,4.70
2023-04-12T02:32:06.245Z,4.28
2023-04-12T02:34:36.829Z,5.88
2023-04-12T02:37:18.088Z,4.80
2023-04-12T02:39:46.634Z,5.18
2023-04-12T02:42:15.556Z,6.10
2023-04-12T02:44:48.064Z,6.07
2023-04-12T02:47:18.697Z,5.88
2023-04-12T02:49:50.790Z,5.32
2023-04-12T02:52:20.632Z,7.70
2023-04-12T02:55:02.201Z,14.50
2023-04-12T02:57:31.930Z,10.60
2023-04-12T03:00:01.906Z,10.07
2023-04-12T03:02:42.025Z,11.15
2023-04-12T03:05:17.855Z,15.15
2023-04-12T03:07:47.446Z,15.65
2023-04-12T03:10:18.150Z,18.85
2023-04-12T03:12:53.053Z,13.98
2023-04-12T03:15:23.775Z,18.88
2023-04-12T03:17:56.241Z,17.50
2023-04-12T03:20:30.922Z,17.45
2023-04-12T03:23:09.022Z,14.38
2023-04-12T03:25:41.303Z,19.58
2023-04-12T03:28:40.167Z,15.73
2023-04-12T03:31:09.365Z,16.60
2023-04-12T03:33:47.947Z,16.27
2023-04-12T03:36:24.200Z,14.27
2023-04-12T03:39:02.497Z,13.35
2023-04-12T03:41:34.249Z,13.77
2023-04-12T03:44:07.536Z,19.85
2023-04-12T03:46:37.996Z,17.75
2023-04-12T03:49:13.510Z,18.50
2023-04-12T03:51:44.718Z,15.40
2023-04-12T03:54:14.286Z,16.23
2023-04-12T03:56:58.311Z,15.85
2023-04-12T03:59:47.376Z,12.70
2023-04-12T04:02:18.199Z,13.70
2023-04-12T04:04:53.145Z,13.43
2023-04-12T04:07:28.223Z,17.52
2023-04-12T04:09:58.370Z,16.13
2023-04-12T04:12:32.122Z,18.17
2023-04-12T04:15:01.250Z,13.75
2023-04-12T04:17:33.664Z,13.35
2023-04-12T04:20:05.942Z,13.88
2023-04-12T04:22:37.593Z,16.67
2023-04-12T04:25:08.263Z,14.18
2023-04-12T04:27:40.980Z,16.27
2023-04-12T04:30:11.605Z,18.10
2023-04-12T04:32:45.201Z,12.73
2023-04-12T04:35:18.115Z,16.75
2023-04-12T04:38:00.762Z,15.40
2023-04-12T04:40:30.289Z,18.92
2023-04-12T04:42:59.542Z,15.80
2023-04-12T04:45:36.648Z,15.73
2023-04-12T04:48:05.855Z,13.68
2023-04-12T04:50:36.308Z,18.77
2023-04-12T04:53:06.060Z,14.45
2023-04-12T04:55:36.404Z,16.65
2023-04-12T04:58:06.752Z,16.35
2023-04-12T05:00:36.799Z,16.50
2023-04-12T05:03:05.790Z,16.45
2023-04-12T05:05:36.962Z,18.85
2023-04-12T05:08:12.511Z,15.98
2023-04-12T05:10:41.556Z,18.65
2023-04-12T05:13:11.213Z,14.85
2023-04-12T05:15:42.755Z,16.75
2023-04-12T05:18:11.438Z,15.60
2023-04-12T05:20:42.260Z,16.67
2023-04-12T05:23:11.276Z,16.40
2023-04-12T05:25:47.298Z,19.08
2023-04-12T05:28:17.735Z,16.70
2023-04-12T05:30:47.303Z,16.40
2023-04-12T05:33:21.807Z,17.77
2023-04-12T05:35:52.758Z,17.17
2023-04-12T05:38:21.906Z,23.58
2023-04-12T05:40:55.511Z,17.65
2023-04-12T05:43:25.833Z,23.10
2023-04-12T05:45:54.591Z,15.77
2023-04-12T05:48:25.452Z,23.33
2023-04-12T05:50:58.404Z,15.52
2023-04-12T05:53:30.039Z,21.00
2023-04-12T05:56:02.980Z,17.60
2023-04-12T05:58:32.052Z,22.25
2023-04-12T06:01:01.315Z,17.83
2023-04-12T06:03:32.578Z,18.75
2023-04-12T06:06:12.155Z,18.80
2023-04-12T06:08:41.720Z,24.17
2023-04-12T06:11:12.304Z,16.55
2023-04-12T06:13:43.512Z,17.98
2023-04-12T06:16:13.915Z,16.35
2023-04-12T06:18:43.153Z,20.15
2023-04-12T06:21:14.595Z,22.38
2023-04-12T06:23:44.249Z,18.13
2023-04-12T06:26:14.485Z,19.90
2023-04-12T06:28:43.662Z,21.25
2023-04-12T06:31:14.601Z,19.55
2023-04-12T06:33:44.911Z,22.40
2023-04-12T06:36:16.438Z,21.83
2023-04-12T06:38:45.547Z,22.02
2023-04-12T06:41:15.658Z,23.20
2023-04-12T06:43:44.620Z,18.50
2023-04-12T06:46:15.744Z,18.67
2023-04-12T06:48:44.531Z,18.13
2023-04-12T06:51:13.846Z,22.70
2023-04-12T06:53:45.285Z,25.58
2023-04-12T06:56:17.904Z,25.20
2023-04-12T06:58:47.717Z,22.08
2023-04-12T07:01:18.020Z,21.77
2023-04-12T07:03:47.681Z,21.75
2023-04-12T07:06:24.930Z,20.00
2023-04-12T07:08:56.495Z,22.67
2023-04-12T07:11:25.935Z,20.48
2023-04-12T07:13:55.727Z,20.20
2023-04-12T07:16:24.478Z,19.55
2023-04-12T07:18:55.582Z,17.55
2023-04-12T07:21:24.434Z,16.67
2023-04-12T07:23:54.028Z,18.20
2023-04-12T07:26:24.604Z,249.70
2023-04-12T07:28:54.977Z,443.52
2023-04-12T07:31:24.542Z,260.90
2023-04-12T07:33:56.703Z,64.93
2023-04-12T07:36:27.589Z,68.18
2023-04-12T07:38:56.775Z,154.90
2023-04-12T07:41:27.271Z,214.57
2023-04-12T07:43:57.062Z,165.40
2023-04-12T07:46:25.876Z,83.07
2023-04-12T07:48:54.837Z,63.65
2023-04-12T07:51:27.063Z,92.28
2023-04-12T07:53:56.628Z,29.50
2023-04-12T07:56:27.682Z,58.05
2023-04-12T07:58:56.928Z,54.05
2023-04-12T08:01:26.205Z,34.83
2023-04-12T08:03:54.862Z,151.10
2023-04-12T08:06:25.414Z,131.38
2023-04-12T08:08:55.364Z,151.90
2023-04-12T08:11:25.019Z,44.53
2023-04-12T08:13:55.635Z,95.53
2023-04-12T08:16:25.008Z,43.65
2023-04-12T08:18:54.423Z,27.85
2023-04-12T08:21:23.497Z,48.42
2023-04-12T08:23:53.214Z,32.10
2023-04-12T08:26:22.228Z,33.42
2023-04-12T08:28:50.999Z,38.28
2023-04-12T08:31:21.389Z,42.20
2023-04-12T08:33:50.972Z,39.70
2023-04-12T08:36:20.050Z,40.50
2023-04-12T08:38:52.674Z,29.58
2023-04-12T08:41:21.934Z,33.75
2023-04-12T08:43:52.732Z,28.27
2023-04-12T08:46:26.286Z,28.13
2023-04-12T08:48:57.323Z,27.20
2023-04-12T08:51:27.007Z,34.33
2023-04-12T08:53:56.541Z,32.10
2023-04-12T08:56:28.690Z,26.70
2023-04-12T08:58:58.556Z,38.83
2023-04-12T09:01:29.087Z,38.95
2023-04-12T09:03:58.124Z,36.40
2023-04-12T09:06:27.245Z,41.83
2023-04-12T09:08:57.436Z,48.53
2023-04-12T09:11:27.559Z,46.88
2023-04-12T09:13:58.905Z,36.23
2023-04-12T09:16:40.862Z,43.13
2023-04-12T09:19:10.637Z,35.03
2023-04-12T09:21:53.986Z,29.10
2023-04-12T09:24:24.515Z,21.52
2023-04-12T09:27:03.304Z,17.70
2023-04-12T09:29:33.552Z,18.17
2023-04-12T09:32:06.520Z,18.23
2023-04-12T09:34:37.317Z,22.58
2023-04-12T09:37:16.251Z,17.70
2023-04-12T09:39:45.997Z,17.50
2023-04-12T09:42:32.319Z,17.88
2023-04-12T09:45:20.362Z,18.25
2023-04-12T09:47:51.381Z,16.63
2023-04-12T09:50:24.882Z,17.75
2023-04-12T09:52:57.644Z,16.75
2023-04-12T09:55:27.584Z,15.00
2023-04-12T09:57:57.399Z,17.15
2023-04-12T10:00:28.409Z,21.33
2023-04-12T10:02:58.898Z,16.20
2023-04-12T10:05:28.299Z,18.83
2023-04-12T10:08:00.916Z,17.35
2023-04-12T10:10:32.887Z,41.75
2023-04-12T10:13:02.669Z,17.98
2023-04-12T10:15:33.869Z,14.73
2023-04-12T10:18:09.626Z,13.18
2023-04-12T10:20:42.208Z,18.48
2023-04-12T10:23:14.074Z,14.15
2023-04-12T10:25:44.381Z,42.35
2023-04-12T10:28:19.015Z,21.38
2023-04-12T10:30:53.437Z,15.60
2023-04-12T10:33:28.181Z,18.45
2023-04-12T10:36:00.830Z,20.58
2023-04-12T10:38:35.339Z,19.13
2023-04-12T10:41:21.621Z,13.85
2023-04-12T10:43:51.386Z,30.42
2023-04-12T10:46:50.908Z,18.58
2023-04-12T10:49:21.266Z,19.50
2023-04-12T10:52:16.449Z,22.58
2023-04-12T10:54:45.533Z,23.83
2023-04-12T10:57:45.423Z,17.27
2023-04-12T11:00:16.398Z,17.05
2023-04-12T11:03:12.756Z,18.33
2023-04-12T11:06:12.746Z,16.20
2023-04-12T11:09:17.894Z,78.55
2023-04-12T11:11:48.068Z,51.97
2023-04-12T11:14:18.068Z,18.25
2023-04-12T11:17:25.458Z,16.52
2023-04-12T11:19:58.484Z,13.90
2023-04-12T11:22:30.815Z,15.43
2023-04-12T11:25:01.177Z,13.98
2023-04-12T11:27:32.095Z,14.93
2023-04-12T11:30:02.392Z,14.10
2023-04-12T11:32:35.606Z,14.88
2023-04-12T11:35:04.572Z,14.13
2023-04-12T11:37:39.630Z,14.85
2023-04-12T11:42:42.082Z,16.73
2023-04-12T11:45:17.826Z,14.70
2023-04-12T11:47:48.226Z,14.77
2023-04-12T11:50:31.414Z,14.50
2023-04-12T11:53:13.593Z,15.30
2023-04-12T11:55:43.065Z,14.38
2023-04-12T11:58:12.730Z,16.58
2023-04-12T12:00:43.411Z,16.63
2023-04-12T12:03:13.179Z,16.65
2023-04-12T12:05:43.739Z,16.02
2023-04-12T12:08:14.659Z,17.33
2023-04-12T12:10:59.987Z,15.20
2023-04-12T12:13:46.012Z,17.20
2023-04-12T12:18:44.264Z,16.75
2023-04-12T12:21:14.689Z,14.32
2023-04-12T12:23:48.016Z,14.30
2023-04-12T12:26:22.929Z,15.23
2023-04-12T12:28:53.146Z,15.32
2023-04-12T12:31:23.485Z,16.55
2023-04-12T12:33:57.256Z,14.85
2023-04-12T12:36:32.854Z,16.00
2023-04-12T12:39:10.817Z,21.45
2023-04-12T12:41:41.463Z,17.65
2023-04-12T12:44:11.504Z,17.85
2023-04-12T12:46:53.491Z,16.75
2023-04-12T12:49:25.077Z,16.15
2023-04-12T12:51:54.064Z,15.38
2023-04-12T12:54:39.657Z,17.85
2023-04-12T12:57:10.957Z,17.17
2023-04-12T12:59:39.795Z,17.75
2023-04-12T13:02:09.414Z,15.48
2023-04-12T13:04:40.735Z,15.60
2023-04-12T13:07:10.165Z,14.82
2023-04-12T13:09:42.794Z,14.40
2023-04-12T13:12:12.235Z,18.05
2023-04-12T13:14:42.072Z,13.65
2023-04-12T13:17:11.662Z,13.68
2023-04-12T13:19:41.088Z,15.98
2023-04-12T13:22:12.820Z,15.73
2023-04-12T13:24:44.732Z,15.95
2023-04-12T13:27:15.386Z,13.40
2023-04-12T13:29:44.528Z,13.88
2023-04-12T13:32:14.359Z,15.77
2023-04-12T13:34:44.345Z,15.90
2023-04-12T13:37:13.457Z,14.15
2023-04-12T13:39:45.146Z,15.88
2023-04-12T13:42:14.954Z,14.10
2023-04-12T13:44:45.281Z,13.45
2023-04-12T13:47:14.780Z,14.65
2023-04-12T13:49:43.657Z,14.73
2023-04-12T13:52:12.951Z,13.05
2023-04-12T13:54:43.658Z,13.40
2023-04-12T13:57:12.728Z,12.18
2023-04-12T13:59:41.630Z,14.55
2023-04-12T14:02:11.577Z,13.10
2023-04-12T14:04:53.137Z,12.18
2023-04-12T14:07:23.347Z,12.80
2023-04-12T14:09:55.925Z,11.32
2023-04-12T14:12:24.932Z,13.18
2023-04-12T14:14:53.959Z,12.18
2023-04-12T14:17:23.221Z,14.40
2023-04-12T14:19:53.334Z,12.82
2023-04-12T14:22:22.724Z,14.43
2023-04-12T14:24:55.773Z,11.35
2023-04-12T14:27:24.878Z,12.80
2023-04-12T14:29:54.850Z,12.15
2023-04-12T14:32:23.845Z,12.35
2023-04-12T14:34:53.170Z,13.00
2023-04-12T14:37:22.250Z,12.20
2023-04-12T14:39:54.576Z,11.40
2023-04-12T14:42:25.687Z,15.15
2023-04-12T14:44:54.694Z,18.52
2023-04-12T14:47:25.237Z,11.77
2023-04-12T14:49:53.970Z,12.40
2023-04-12T14:52:25.427Z,11.70
2023-04-12T14:54:54.837Z,12.23
2023-04-12T14:57:26.131Z,11.93
2023-04-12T14:59:56.884Z,12.35
2023-04-12T15:02:26.440Z,11.70
2023-04-12T15:04:55.838Z,12.27
2023-04-12T15:07:24.920Z,12.02
2023-04-12T15:09:57.573Z,12.13
2023-04-12T15:12:29.358Z,10.70
2023-04-12T15:14:58.410Z,10.68
2023-04-12T15:17:27.344Z,10.45
2023-04-12T15:19:58.009Z,12.25
2023-04-12T15:22:27.090Z,10.02
2023-04-12T15:24:58.090Z,10.27
2023-04-12T15:27:28.445Z,9.20
2023-04-12T15:29:57.350Z,10.63
2023-04-12T15:32:27.580Z,9.65
2023-04-12T15:34:57.481Z,8.15
2023-04-12T15:37:26.857Z,10.02
2023-04-12T15:39:55.533Z,11.13
2023-04-12T15:42:24.729Z,12.32
2023-04-12T15:44:54.962Z,9.23
2023-04-12T15:47:25.006Z,8.95
2023-04-12T15:49:54.651Z,10.90
2023-04-12T15:52:24.498Z,9.57
2023-04-12T15:54:56.616Z,7.80
2023-04-12T15:57:27.744Z,9.68
2023-04-12T15:59:59.809Z,9.52
2023-04-12T16:02:32.429Z,9.95
2023-04-12T16:05:01.949Z,10.00
2023-04-12T16:07:31.135Z,10.45
2023-04-12T16:10:00.770Z,10.88
2023-04-12T16:12:29.376Z,9.68
2023-04-12T16:15:00.210Z,11.07
2023-04-12T16:17:28.915Z,10.82
2023-04-12T16:19:58.633Z,9.98
2023-04-12T16:22:27.507Z,13.10
2023-04-12T16:24:56.589Z,11.52
2023-04-12T16:27:29.575Z,10.80
2023-04-12T16:29:59.760Z,14.35
2023-04-12T16:32:29.164Z,13.45
2023-04-12T16:34:57.737Z,9.75
2023-04-12T16:37:29.850Z,9.10
2023-04-12T16:39:59.081Z,13.00
2023-04-12T16:42:31.904Z,11.55
2023-04-12T16:45:05.946Z,13.07
2023-04-12T16:47:35.411Z,11.63
2023-04-12T16:50:05.222Z,11.30
2023-04-12T16:52:34.146Z,11.68
2023-04-12T16:55:02.985Z,13.50
2023-04-12T16:57:33.205Z,14.25
2023-04-12T17:00:02.984Z,12.98
2023-04-12T17:02:33.918Z,12.98
2023-04-12T17:05:04.585Z,12.10
2023-04-12T17:07:33.676Z,12.05
2023-04-12T17:10:03.536Z,12.38
2023-04-12T17:12:35.416Z,13.32
2023-04-12T17:15:05.550Z,14.30
2023-04-12T17:17:36.562Z,16.13
2023-04-12T17:20:09.055Z,15.15
2023-04-12T17:22:37.853Z,16.00
2023-04-12T17:25:08.725Z,15.68
2023-04-12T17:27:37.760Z,17.90
2023-04-12T17:30:08.902Z,15.00
2023-04-12T17:32:40.401Z,16.55
2023-04-12T17:35:10.550Z,14.23
2023-04-12T17:37:39.414Z,15.63
2023-04-12T17:40:10.640Z,16.15
2023-04-12T17:42:41.527Z,15.27
2023-04-12T17:45:12.906Z,15.75
2023-04-12T17:47:44.023Z,16.70
2023-04-12T17:50:13.849Z,14.70
2023-04-12T17:52:42.664Z,17.27
2023-04-12T17:55:12.628Z,16.77
2023-04-12T17:57:41.675Z,17.27
2023-04-12T18:00:12.150Z,16.60
2023-04-12T18:02:46.891Z,16.60
2023-04-12T18:07:45.189Z,17.92
2023-04-12T18:10:21.459Z,18.98
2023-04-12T18:12:50.605Z,17.05
2023-04-12T18:15:19.490Z,20.77
2023-04-12T18:17:50.523Z,22.33
2023-04-12T18:20:19.624Z,22.70
2023-04-12T18:22:48.730Z,18.75
2023-04-12T18:25:19.765Z,22.15
2023-04-12T18:27:49.593Z,17.48
2023-04-12T18:30:19.765Z,16.60
2023-04-12T18:32:50.387Z,18.25
2023-04-12T18:35:19.608Z,18.33
2023-04-12T18:37:49.003Z,21.42
2023-04-12T18:40:21.785Z,21.08
2023-04-12T18:42:52.232Z,25.38
2023-04-12T18:45:21.270Z,22.10
2023-04-12T18:47:54.039Z,27.20
2023-04-12T18:50:23.651Z,22.60
2023-04-12T18:52:53.203Z,20.77
2023-04-12T18:55:22.054Z,23.63
2023-04-12T18:57:50.788Z,23.13
2023-04-12T19:00:21.500Z,19.17
2023-04-12T19:02:51.890Z,21.50
2023-04-12T19:05:21.932Z,23.25
2023-04-12T19:07:52.164Z,23.42
2023-04-12T19:10:24.410Z,26.65
2023-04-12T19:12:53.241Z,26.48
2023-04-12T19:15:22.565Z,24.55
2023-04-12T19:17:55.120Z,21.63
2023-04-12T19:20:27.049Z,25.52
2023-04-12T19:22:55.872Z,19.83
2023-04-12T19:25:29.773Z,21.63
2023-04-12T19:28:00.142Z,19.27
2023-04-12T19:30:33.508Z,20.85
2023-04-12T19:33:04.458Z,25.00
2023-04-12T19:35:35.614Z,26.48
2023-04-12T19:38:05.112Z,24.58
2023-04-12T19:40:34.517Z,25.08
2023-04-12T19:43:03.448Z,24.30
2023-04-12T19:45:32.252Z,25.23
2023-04-12T19:48:02.120Z,24.33
2023-04-12T19:50:32.852Z,29.60
2023-04-12T19:53:02.025Z,29.67
2023-04-12T19:55:31.434Z,42.80
2023-04-12T19:58:01.576Z,27.73
2023-04-12T20:00:30.393Z,30.13
2023-04-12T20:03:02.024Z,33.97
2023-04-12T20:05:32.976Z,33.75
2023-04-12T20:08:01.594Z,26.60
2023-04-12T20:10:30.380Z,43.50
2023-04-12T20:13:00.108Z,37.72
2023-04-12T20:15:28.901Z,38.88
2023-04-12T20:17:58.421Z,40.72
2023-04-12T20:20:27.085Z,46.97
2023-04-12T20:22:59.043Z,44.97
2023-04-12T20:27:56.671Z,45.15
2023-04-12T20:30:27.852Z,50.70
2023-04-12T20:32:57.646Z,48.58
2023-04-12T20:35:26.808Z,46.80
2023-04-12T20:37:57.845Z,42.50
2023-04-12T20:40:29.890Z,50.10
2023-04-12T20:42:58.887Z,45.35
2023-04-12T20:45:28.214Z,76.32
2023-04-12T20:47:56.773Z,118.85
2023-04-12T20:50:25.923Z,118.45
2023-04-12T20:52:56.406Z,70.03
2023-04-12T20:55:34.265Z,132.27
2023-04-12T20:58:04.392Z,91.20
2023-04-12T21:00:34.026Z,91.80
2023-04-12T21:03:03.431Z,69.85
2023-04-12T21:05:33.875Z,149.57
2023-04-12T21:08:03.370Z,59.33
2023-04-12T21:10:33.260Z,285.20
2023-04-12T21:13:03.101Z,186.25
2023-04-12T21:15:35.636Z,266.90
2023-04-12T21:18:04.676Z,202.80
2023-04-12T21:20:37.150Z,285.50
2023-04-12T21:23:08.349Z,182.63
2023-04-12T21:25:38.856Z,278.33
2023-04-12T21:28:07.913Z,166.80
2023-04-12T21:30:37.385Z,227.77
2023-04-12T21:33:06.114Z,160.95
2023-04-12T21:35:35.229Z,188.57
2023-04-12T21:38:03.979Z,224.40
2023-04-12T21:40:32.401Z,208.32
2023-04-12T21:43:02.755Z,187.25
2023-04-12T21:45:31.776Z,194.57
2023-04-12T21:48:00.677Z,137.85
2023-04-12T21:50:29.127Z,160.73
2023-04-12T21:52:57.711Z,164.90
2023-04-12T21:55:28.844Z,183.52
2023-04-12T21:57:57.303Z,149.55
2023-04-12T22:00:27.528Z,196.27
2023-04-12T22:02:56.681Z,129.88
2023-04-12T22:05:25.564Z,248.95
2023-04-12T22:07:54.178Z,126.85
2023-04-12T22:10:22.804Z,159.85
2023-04-12T22:12:51.408Z,174.70
2023-04-12T22:15:20.122Z,77.75
2023-04-12T22:17:50.203Z,253.68
2023-04-12T22:20:19.118Z,106.35
2023-04-12T22:22:47.866Z,128.75
2023-04-12T22:25:18.506Z,86.60
2023-04-12T22:27:48.034Z,78.93
2023-04-12T22:30:16.851Z,74.07
2023-04-12T22:32:45.458Z,91.22
2023-04-12T22:35:16.088Z,104.90
2023-04-12T22:37:44.953Z,107.25
2023-04-12T22:40:14.390Z,130.10
2023-04-12T22:42:47.539Z,126.18
2023-04-12T22:45:17.706Z,188.57
2023-04-12T22:47:46.753Z,103.35
2023-04-12T22:50:16.747Z,77.35
2023-04-12T22:52:45.450Z,116.38
2023-04-12T22:55:17.263Z,77.18
2023-04-12T22:57:47.136Z,89.97
2023-04-12T23:00:18.331Z,93.07
2023-04-12T23:02:48.725Z,85.35
2023-04-12T23:05:20.036Z,161.75
2023-04-12T23:07:49.591Z,113.88
2023-04-12T23:10:18.491Z,115.60
2023-04-12T23:12:49.301Z,120.35
2023-04-12T23:15:18.317Z,93.30
2023-04-12T23:17:46.873Z,103.32
2023-04-12T23:20:16.105Z,96.00
2023-04-12T23:22:57.724Z,99.75
2023-04-12T23:25:39.619Z,114.25
2023-04-12T23:28:13.493Z,145.18
2023-04-12T23:30:44.644Z,117.32
2023-04-12T23:33:13.202Z,132.43
2023-04-12T23:35:42.246Z,114.15
2023-04-12T23:38:16.172Z,111.07
2023-04-12T23:40:44.725Z,98.45
2023-04-12T23:43:13.665Z,88.40
2023-04-12T23:45:42.271Z,88.32
2023-04-12T23:48:10.988Z,81.55
2023-04-12T23:50:40.436Z,112.50
2023-04-12T23:53:08.951Z,90.97
2023-04-12T23:55:39.185Z,143.45
2023-04-12T23:58:08.517Z,95.07
